Time;durP1;ratioP1;P1;durP2;ratioP2;P2;SDS_P1;SDS_P2;PMS_P1;PMS_P2;Temp;Humidity;BMP_temperature;BMP_pressure;BME280_temperature;BME280_humidity;BME280_pressure;Samples;Min_cycle;Max_cycle;Signal;HPM_P1;HPM_P2
2021/06/18 00:02:23;;;;;;;24.65;22.05;;;;;;;;;;5111745;28;20405;-81
2021/06/18 00:04:49;;;;;;;26.88;23.00;;;;;;;;;;5119918;27;20056;-79
2021/06/18 00:07:15;;;;;;;27.85;23.00;;;;;;;;;;5123082;27;20035;-79
2021/06/18 00:09:41;;;;;;;23.33;21.02;;;;;;;;;;5114065;28;20032;-80
2021/06/18 00:12:07;;;;;;;23.60;21.13;;;;;;;;;;5119327;27;20039;-80
2021/06/18 00:14:33;;;;;;;23.08;20.75;;;;;;;;;;5114020;27;20020;-80
2021/06/18 00:16:59;;;;;;;21.73;19.48;;;;;;;;;;5112030;27;20036;-80
2021/06/18 00:19:25;;;;;;;21.95;19.83;;;;;;;;;;5125497;27;20050;-79
2021/06/18 00:21:52;;;;;;;21.33;18.80;;;;;;;;;;5120099;27;20081;-79
2021/06/18 00:24:18;;;;;;;19.63;17.75;;;;;;;;;;5119568;27;20023;-80
2021/06/18 00:26:44;;;;;;;19.02;17.13;;;;;;;;;;5120303;27;20060;-79
2021/06/18 00:29:10;;;;;;;22.02;18.50;;;;;;;;;;5112521;28;20016;-80
2021/06/18 00:31:36;;;;;;;20.60;18.50;;;;;;;;;;5128863;27;20619;-79
2021/06/18 00:34:02;;;;;;;22.33;19.92;;;;;;;;;;5107529;28;20053;-80
2021/06/18 00:36:28;;;;;;;21.17;19.02;;;;;;;;;;5109213;27;20096;-80
2021/06/18 00:38:54;;;;;;;20.23;18.33;;;;;;;;;;5120354;27;20364;-77
2021/06/18 00:41:20;;;;;;;20.60;18.50;;;;;;;;;;5123154;27;20087;-80
2021/06/18 00:43:46;;;;;;;21.83;19.45;;;;;;;;;;5129371;27;20037;-79
2021/06/18 00:46:13;;;;;;;22.10;19.83;;;;;;;;;;5118931;27;20474;-80
2021/06/18 00:48:39;;;;;;;23.25;20.80;;;;;;;;;;5094106;28;20110;-80
2021/06/18 00:51:05;;;;;;;23.95;21.13;;;;;;;;;;5111213;27;20042;-80
2021/06/18 00:53:31;;;;;;;26.08;21.13;;;;;;;;;;5109460;28;20050;-79
2021/06/18 00:55:57;;;;;;;22.55;20.45;;;;;;;;;;5118764;27;20103;-79
2021/06/18 00:58:23;;;;;;;23.60;21.30;;;;;;;;;;5116190;27;20058;-80
2021/06/18 01:00:49;;;;;;;23.70;21.35;;;;;;;;;;5119850;27;20308;-81
2021/06/18 01:03:15;;;;;;;24.67;22.27;;;;;;;;;;5091686;28;20053;-79
2021/06/18 01:05:42;;;;;;;24.50;22.00;;;;;;;;;;5111110;27;20129;-80
2021/06/18 01:08:24;;;;;;;23.80;21.58;;;;;;;;;;5121397;27;20035;-80
2021/06/18 01:10:56;;;;;;;27.17;22.08;;;;;;;;;;5122640;27;20374;-79
2021/06/18 01:13:29;;;;;;;24.02;21.70;;;;;;;;;;5113971;27;20089;-80
2021/06/18 01:16:16;;;;;;;26.10;22.02;;;;;;;;;;5111035;27;20034;-80
2021/06/18 01:18:44;;;;;;;22.42;20.40;;;;;;;;;;5110828;28;20048;-80
2021/06/18 01:21:10;;;;;;;22.33;19.98;;;;;;;;;;5111313;28;20118;-81
2021/06/18 01:23:46;;;;;;;22.60;20.30;;;;;;;;;;5120410;27;20571;-80
2021/06/18 01:26:24;;;;;;;24.48;20.02;;;;;;;;;;5128629;28;20080;-80
2021/06/18 01:29:00;;;;;;;22.10;19.80;;;;;;;;;;5122898;28;20035;-79
2021/06/18 01:31:47;;;;;;;23.77;21.25;;;;;;;;;;5112518;28;20031;-79
2021/06/18 01:34:19;;;;;;;24.00;21.50;;;;;;;;;;5109530;28;20035;-80
2021/06/18 01:36:47;;;;;;;24.30;21.08;;;;;;;;;;5103320;28;20388;-80
2021/06/18 01:39:13;;;;;;;22.70;20.40;;;;;;;;;;5116881;28;20042;-80
2021/06/18 01:41:39;;;;;;;24.35;20.00;;;;;;;;;;5101799;28;20027;-80
2021/06/18 01:44:06;;;;;;;22.50;20.35;;;;;;;;;;5121957;28;20034;-80
2021/06/18 01:46:35;;;;;;;21.67;19.48;;;;;;;;;;5123649;27;20020;-81
2021/06/18 01:49:03;;;;;;;21.00;19.00;;;;;;;;;;5096303;28;20035;-79
2021/06/18 01:51:29;;;;;;;19.75;17.95;;;;;;;;;;5117767;27;20079;-79
2021/06/18 01:53:59;;;;;;;21.40;19.02;;;;;;;;;;5130562;27;20047;-79
2021/06/18 01:56:26;;;;;;;21.60;18.85;;;;;;;;;;5120116;27;20023;-80
2021/06/18 01:58:53;;;;;;;21.10;19.10;;;;;;;;;;5107781;28;20130;-80
2021/06/18 02:01:20;;;;;;;21.88;19.67;;;;;;;;;;5128403;27;20031;-80
2021/06/18 02:03:46;;;;;;;;;;;;;;;;;;5119162;27;20031;-81
2021/06/18 02:06:13;;;;;;;21.88;19.77;;;;;;;;;;5122106;27;19918;-79
2021/06/18 02:08:40;;;;;;;22.17;19.88;;;;;;;;;;5114246;28;20081;-80
2021/06/18 02:11:07;;;;;;;23.17;20.77;;;;;;;;;;5114277;28;20047;-80
2021/06/18 02:13:33;;;;;;;23.67;21.23;;;;;;;;;;5122289;27;20019;-79
2021/06/18 02:16:00;;;;;;;23.10;20.63;;;;;;;;;;5120568;27;20503;-80
2021/06/18 02:18:26;;;;;;;23.30;20.95;;;;;;;;;;5119491;27;20050;-80
2021/06/18 02:20:56;;;;;;;22.87;20.37;;;;;;;;;;5118708;27;20058;-80
2021/06/18 02:23:24;;;;;;;24.50;21.45;;;;;;;;;;5114735;27;20077;-80
2021/06/18 02:25:50;;;;;;;23.40;21.10;;;;;;;;;;5110263;28;20031;-78
2021/06/18 02:28:18;;;;;;;22.20;19.90;;;;;;;;;;5097033;28;20034;-80
2021/06/18 02:30:44;;;;;;;22.20;19.25;;;;;;;;;;5118902;27;20027;-80
2021/06/18 02:33:12;;;;;;;19.58;17.55;;;;;;;;;;5124602;27;20460;-81
2021/06/18 02:35:41;;;;;;;19.75;17.83;;;;;;;;;;5133578;27;20011;-80
2021/06/18 02:38:08;;;;;;;20.90;18.80;;;;;;;;;;5121427;27;20027;-79
2021/06/18 02:40:35;;;;;;;20.75;18.65;;;;;;;;;;5122598;27;20034;-79
2021/06/18 02:43:01;;;;;;;21.07;19.07;;;;;;;;;;5121987;27;20365;-80
2021/06/18 02:45:27;;;;;;;19.95;18.02;;;;;;;;;;5121763;27;20023;-79
2021/06/18 02:47:57;;;;;;;20.55;18.55;;;;;;;;;;5107271;27;20023;-80
2021/06/18 02:50:23;;;;;;;20.33;17.45;;;;;;;;;;5116194;27;20078;-80
2021/06/18 02:52:58;;;;;;;20.95;18.95;;;;;;;;;;5118781;27;20152;-81
2021/06/18 02:55:28;;;;;;;22.33;19.95;;;;;;;;;;5095176;28;20024;-79
2021/06/18 02:57:56;;;;;;;21.90;19.27;;;;;;;;;;5111732;27;20019;-79
2021/06/18 03:00:23;;;;;;;23.15;20.70;;;;;;;;;;5124167;27;20019;-81
2021/06/18 03:02:49;;;;;;;;;;;;;;;;;;5124915;27;20059;-81
2021/06/18 03:05:16;;;;;;;19.85;17.83;;;;;;;;;;5131451;27;20020;-79
2021/06/18 03:08:01;;;;;;;19.67;17.80;;;;;;;;;;5114885;27;20043;-81
2021/06/18 03:10:34;;;;;;;22.95;17.83;;;;;;;;;;5112549;27;20481;-79
2021/06/18 03:13:06;;;;;;;18.90;17.10;;;;;;;;;;5120830;27;20035;-80
2021/06/18 03:15:35;;;;;;;16.83;15.25;;;;;;;;;;5121245;27;20026;-80
2021/06/18 03:18:01;;;;;;;18.00;15.75;;;;;;;;;;5112951;27;20030;-80
2021/06/18 03:20:27;;;;;;;16.98;15.32;;;;;;;;;;5119151;27;20485;-80
2021/06/18 03:22:55;;;;;;;16.85;15.20;;;;;;;;;;5131870;27;20469;-82
2021/06/18 03:25:22;;;;;;;17.35;15.70;;;;;;;;;;5128612;27;20456;-81
2021/06/18 03:27:49;;;;;;;18.90;17.15;;;;;;;;;;5117423;27;20019;-80
2021/06/18 03:30:15;;;;;;;22.70;20.25;;;;;;;;;;5129316;27;20030;-79
2021/06/18 03:32:42;;;;;;;23.65;21.23;;;;;;;;;;5123185;27;20520;-81
2021/06/18 03:35:08;;;;;;;23.95;21.58;;;;;;;;;;5126989;27;20035;-80
2021/06/18 03:37:36;;;;;;;23.65;20.98;;;;;;;;;;5132922;27;20094;-78
2021/06/18 03:40:03;;;;;;;24.27;21.70;;;;;;;;;;5129857;27;20129;-81
2021/06/18 03:42:29;;;;;;;22.25;19.98;;;;;;;;;;5116441;27;20054;-80
2021/06/18 03:44:56;;;;;;;22.75;19.85;;;;;;;;;;5117593;27;20042;-78
2021/06/18 03:47:22;;;;;;;21.73;19.73;;;;;;;;;;5120733;27;20102;-79
2021/06/18 03:49:49;;;;;;;20.15;18.05;;;;;;;;;;5120381;27;20546;-80
2021/06/18 03:52:15;;;;;;;18.08;16.27;;;;;;;;;;5111319;28;20046;-78
2021/06/18 03:54:42;;;;;;;19.80;17.77;;;;;;;;;;5121361;27;20039;-80
2021/06/18 03:57:08;;;;;;;18.85;16.92;;;;;;;;;;5111432;27;20039;-80
2021/06/18 03:59:36;;;;;;;18.50;16.10;;;;;;;;;;5115281;27;20019;-79
2021/06/18 04:02:03;;;;;;;18.15;15.93;;;;;;;;;;5122300;27;20035;-80
2021/06/18 04:04:31;;;;;;;17.48;15.43;;;;;;;;;;5116777;27;20019;-80
2021/06/18 04:06:58;;;;;;;17.63;15.75;;;;;;;;;;5112190;27;20095;-79
2021/06/18 04:09:24;;;;;;;16.80;15.10;;;;;;;;;;5120022;27;20027;-79
2021/06/18 04:11:50;;;;;;;16.33;14.70;;;;;;;;;;5118298;27;20503;-79
2021/06/18 04:14:17;;;;;;;15.45;14.05;;;;;;;;;;5123488;27;20146;-80
2021/06/18 04:16:43;;;;;;;20.48;13.38;;;;;;;;;;5123349;27;20051;-80
2021/06/18 04:19:10;;;;;;;15.20;13.73;;;;;;;;;;5119852;27;20015;-80
2021/06/18 04:21:40;;;;;;;14.02;12.65;;;;;;;;;;5114183;27;20471;-79
2021/06/18 04:24:06;;;;;;;14.60;13.10;;;;;;;;;;5110765;28;20536;-79
2021/06/18 04:26:33;;;;;;;14.65;12.38;;;;;;;;;;5112317;27;20028;-79
2021/06/18 04:28:59;;;;;;;14.57;13.13;;;;;;;;;;5111948;27;20042;-79
2021/06/18 04:31:25;;;;;;;15.93;13.23;;;;;;;;;;5119411;27;20049;-79
2021/06/18 04:33:51;;;;;;;13.60;12.27;;;;;;;;;;5124378;27;20087;-80
2021/06/18 04:36:16;;;;;;;12.95;10.98;;;;;;;;;;5114249;27;20106;-80
2021/06/18 04:38:42;;;;;;;12.10;10.63;;;;;;;;;;5110816;28;20529;-81
2021/06/18 04:41:09;;;;;;;11.13;10.07;;;;;;;;;;5123665;27;20027;-81
2021/06/18 04:43:34;;;;;;;11.40;10.40;;;;;;;;;;5111866;27;20074;-77
2021/06/18 04:46:01;;;;;;;12.13;10.93;;;;;;;;;;5120915;27;20369;-80
2021/06/18 04:48:28;;;;;;;12.30;10.87;;;;;;;;;;5128257;27;20058;-80
2021/06/18 04:50:54;;;;;;;;;;;;;;;;;;5117476;27;20702;-78
2021/06/18 04:53:20;;;;;;;12.95;11.27;;;;;;;;;;5093447;28;19922;-80
2021/06/18 04:55:46;;;;;;;13.02;11.32;;;;;;;;;;5124583;27;20031;-80
2021/06/18 04:58:13;;;;;;;15.65;12.60;;;;;;;;;;5110672;28;20023;-81
2021/06/18 05:00:39;;;;;;;14.93;13.55;;;;;;;;;;5110744;27;20036;-80
2021/06/18 05:03:05;;;;;;;14.00;12.70;;;;;;;;;;5119671;27;20019;-79
2021/06/18 05:05:31;;;;;;;15.52;12.63;;;;;;;;;;5129428;27;20031;-80
2021/06/18 05:07:58;;;;;;;14.27;12.77;;;;;;;;;;5117342;27;20031;-79
2021/06/18 05:10:24;;;;;;;15.85;12.95;;;;;;;;;;5123814;27;20035;-79
2021/06/18 05:12:50;;;;;;;14.70;13.20;;;;;;;;;;5111077;28;20031;-78
2021/06/18 05:15:16;;;;;;;20.92;13.85;;;;;;;;;;5121580;27;20350;-76
2021/06/18 05:17:42;;;;;;;16.52;12.02;;;;;;;;;;5118111;27;20032;-78
2021/06/18 05:20:09;;;;;;;12.50;11.20;;;;;;;;;;5110452;27;20035;-77
2021/06/18 05:22:35;;;;;;;16.23;13.20;;;;;;;;;;5111948;27;20432;-75
2021/06/18 05:25:01;;;;;;;14.60;13.23;;;;;;;;;;5121798;27;20091;-76
2021/06/18 05:27:27;;;;;;;16.55;12.98;;;;;;;;;;5116734;28;20034;-75
2021/06/18 05:29:53;;;;;;;14.10;12.60;;;;;;;;;;5122906;28;20027;-76
2021/06/18 05:32:19;;;;;;;14.60;12.48;;;;;;;;;;5116746;28;20491;-77
2021/06/18 05:34:46;;;;;;;14.80;12.77;;;;;;;;;;5110588;28;20019;-77
2021/06/18 05:37:12;;;;;;;18.92;12.95;;;;;;;;;;5121849;28;20075;-77
2021/06/18 05:39:38;;;;;;;15.13;13.73;;;;;;;;;;5121757;28;20023;-76
2021/06/18 05:42:04;;;;;;;14.18;12.82;;;;;;;;;;5112879;28;20039;-76
2021/06/18 05:44:30;;;;;;;14.27;12.80;;;;;;;;;;5123354;28;20473;-76
2021/06/18 05:46:56;;;;;;;14.90;13.43;;;;;;;;;;5110453;28;20031;-76
2021/06/18 05:49:22;;;;;;;16.17;13.60;;;;;;;;;;5112721;28;20031;-75
2021/06/18 05:51:48;;;;;;;14.57;13.23;;;;;;;;;;5118042;28;20071;-77
2021/06/18 05:54:14;;;;;;;15.45;13.10;;;;;;;;;;5109973;28;20816;-76
2021/06/18 05:56:40;;;;;;;14.73;13.23;;;;;;;;;;5116828;28;20024;-77
2021/06/18 05:59:07;;;;;;;14.95;13.15;;;;;;;;;;5121112;28;20281;-77
2021/06/18 06:01:33;;;;;;;14.03;12.60;;;;;;;;;;5124204;28;20026;-76
2021/06/18 06:04:02;;;;;;;18.70;14.52;;;;;;;;;;5110522;28;20035;-76
2021/06/18 06:06:28;;;;;;;21.85;13.45;;;;;;;;;;5110089;28;20028;-77
2021/06/18 06:08:54;;;;;;;15.63;12.63;;;;;;;;;;5111907;28;20721;-75
2021/06/18 06:11:21;;;;;;;12.30;11.10;;;;;;;;;;5111269;28;20043;-76
2021/06/18 06:13:49;;;;;;;14.70;12.50;;;;;;;;;;5121644;28;20036;-76
2021/06/18 06:16:15;;;;;;;18.23;13.27;;;;;;;;;;5117940;28;20126;-75
2021/06/18 06:18:41;;;;;;;15.63;13.75;;;;;;;;;;5120749;28;20467;-76
2021/06/18 06:21:07;;;;;;;17.67;15.20;;;;;;;;;;5110217;28;20030;-75
2021/06/18 06:23:33;;;;;;;12.48;11.13;;;;;;;;;;5090805;28;20119;-76
2021/06/18 06:25:59;;;;;;;13.75;10.90;;;;;;;;;;5118330;28;20031;-77
2021/06/18 06:28:26;;;;;;;12.52;11.32;;;;;;;;;;5120067;28;20502;-77
2021/06/18 06:30:52;;;;;;;13.05;11.77;;;;;;;;;;5112243;28;20035;-77
2021/06/18 06:33:18;;;;;;;14.00;12.70;;;;;;;;;;5120815;27;20031;-76
2021/06/18 06:35:44;;;;;;;13.98;12.25;;;;;;;;;;5125464;27;20024;-76
2021/06/18 06:38:10;;;;;;;14.13;12.70;;;;;;;;;;5125192;27;20023;-75
2021/06/18 06:40:36;;;;;;;16.30;14.63;;;;;;;;;;5114284;27;20035;-75
2021/06/18 06:43:02;;;;;;;16.65;15.07;;;;;;;;;;5112307;28;20394;-75
2021/06/18 06:45:28;;;;;;;15.85;14.32;;;;;;;;;;5112788;28;20044;-75
2021/06/18 06:47:54;;;;;;;17.65;14.75;;;;;;;;;;5121275;27;20020;-75
2021/06/18 06:50:20;;;;;;;17.05;15.13;;;;;;;;;;5122012;27;20030;-76
2021/06/18 06:52:46;;;;;;;32.03;28.77;;;;;;;;;;5120212;27;20044;-75
2021/06/18 06:55:12;;;;;;;18.35;16.23;;;;;;;;;;5109516;27;20134;-76
2021/06/18 06:57:39;;;;;;;18.17;16.30;;;;;;;;;;5132995;27;20417;-75
2021/06/18 07:00:06;;;;;;;18.63;16.67;;;;;;;;;;5124818;27;20034;-75
2021/06/18 07:02:32;;;;;;;17.60;15.63;;;;;;;;;;5114725;27;20072;-76
2021/06/18 07:04:58;;;;;;;17.13;15.37;;;;;;;;;;5111988;28;20122;-76
2021/06/18 07:07:24;;;;;;;18.88;14.93;;;;;;;;;;5113411;27;20059;-75
2021/06/18 07:09:50;;;;;;;16.13;13.68;;;;;;;;;;5129638;27;20054;-77
2021/06/18 07:12:16;;;;;;;19.08;14.30;;;;;;;;;;5111879;28;20500;-75
2021/06/18 07:14:42;;;;;;;18.23;16.02;;;;;;;;;;5113975;27;20092;-76
2021/06/18 07:17:08;;;;;;;17.25;15.48;;;;;;;;;;5127648;27;20391;-75
2021/06/18 07:19:35;;;;;;;17.33;15.53;;;;;;;;;;5112912;27;20031;-75
2021/06/18 07:22:01;;;;;;;22.70;15.63;;;;;;;;;;5116629;27;20058;-76
2021/06/18 07:24:27;;;;;;;16.48;14.88;;;;;;;;;;5115848;27;20351;-76
2021/06/18 07:26:53;;;;;;;16.70;14.90;;;;;;;;;;5113221;27;20129;-76
2021/06/18 07:29:20;;;;;;;19.58;16.15;;;;;;;;;;5127356;27;20092;-75
2021/06/18 07:31:46;;;;;;;28.98;15.85;;;;;;;;;;5113886;27;20508;-77
2021/06/18 07:34:12;;;;;;;23.50;19.63;;;;;;;;;;5112291;27;20402;-76
2021/06/18 07:36:38;;;;;;;17.77;15.95;;;;;;;;;;5112501;27;20042;-76
2021/06/18 07:39:05;;;;;;;19.25;15.35;;;;;;;;;;5112428;27;20023;-76
2021/06/18 07:41:31;;;;;;;18.77;14.48;;;;;;;;;;5112441;28;20063;-74
2021/06/18 07:43:57;;;;;;;15.20;13.73;;;;;;;;;;5119361;27;20046;-75
2021/06/18 07:46:24;;;;;;;19.95;15.07;;;;;;;;;;5111126;28;20039;-74
2021/06/18 07:48:50;;;;;;;17.27;14.00;;;;;;;;;;5113760;27;20026;-75
2021/06/18 07:51:16;;;;;;;16.13;13.37;;;;;;;;;;5126386;27;20031;-76
2021/06/18 07:53:42;;;;;;;16.00;12.30;;;;;;;;;;5111161;28;20062;-75
2021/06/18 07:56:08;;;;;;;15.02;13.43;;;;;;;;;;5113455;27;20023;-75
2021/06/18 07:58:37;;;;;;;16.73;13.50;;;;;;;;;;5110921;28;20587;-75
2021/06/18 08:01:03;;;;;;;13.63;11.30;;;;;;;;;;5120278;27;20442;-77
2021/06/18 08:03:29;;;;;;;16.00;12.20;;;;;;;;;;5126646;27;20509;-74
2021/06/18 08:05:55;;;;;;;14.23;12.05;;;;;;;;;;5096028;28;20036;-75
2021/06/18 08:08:21;;;;;;;14.35;12.20;;;;;;;;;;5110813;28;20043;-75
2021/06/18 08:10:46;;;;;;;17.17;12.23;;;;;;;;;;5128212;27;20159;-75
2021/06/18 08:13:12;;;;;;;13.73;12.13;;;;;;;;;;5096630;27;20023;-76
2021/06/18 08:15:38;;;;;;;14.25;11.52;;;;;;;;;;5115495;27;20028;-76
2021/06/18 08:18:05;;;;;;;16.58;11.02;;;;;;;;;;5127159;27;20390;-75
2021/06/18 08:20:31;;;;;;;13.17;10.93;;;;;;;;;;5111699;27;20074;-75
2021/06/18 08:22:57;;;;;;;11.32;9.50;;;;;;;;;;5112383;27;20491;-75
2021/06/18 08:25:24;;;;;;;15.43;8.40;;;;;;;;;;5123406;27;20015;-75
2021/06/18 08:27:50;;;;;;;13.07;8.85;;;;;;;;;;5131281;27;20031;-76
2021/06/18 08:30:17;;;;;;;10.00;9.00;;;;;;;;;;5121865;27;20031;-75
2021/06/18 08:32:43;;;;;;;10.98;9.43;;;;;;;;;;5122171;27;20043;-76
2021/06/18 08:35:09;;;;;;;10.05;9.02;;;;;;;;;;5112811;27;20077;-76
2021/06/18 08:37:35;;;;;;;13.20;9.03;;;;;;;;;;5117739;27;20026;-75
2021/06/18 08:40:02;;;;;;;10.90;9.45;;;;;;;;;;5111611;27;20404;-75
2021/06/18 08:42:29;;;;;;;11.93;8.63;;;;;;;;;;5110339;28;20077;-76
2021/06/18 08:44:54;;;;;;;;;;;;;;;;;;5119303;27;20031;-76
2021/06/18 08:47:20;;;;;;;11.38;9.00;;;;;;;;;;5111202;27;20002;-76
2021/06/18 08:49:46;;;;;;;10.10;9.07;;;;;;;;;;5111193;27;20047;-75
2021/06/18 08:52:12;;;;;;;9.60;8.63;;;;;;;;;;5111740;27;20054;-73
2021/06/18 08:54:42;;;;;;;10.80;8.40;;;;;;;;;;5123966;27;20027;-75
2021/06/18 08:57:09;;;;;;;10.98;8.88;;;;;;;;;;5114114;27;20398;-75
2021/06/18 08:59:35;;;;;;;15.23;8.32;;;;;;;;;;5123773;27;20390;-75
2021/06/18 09:02:01;;;;;;;12.88;8.70;;;;;;;;;;5112255;27;20031;-76
2021/06/18 09:04:27;;;;;;;10.03;9.03;;;;;;;;;;5111141;27;20042;-76
2021/06/18 09:06:57;;;;;;;11.95;9.25;;;;;;;;;;5121411;27;20060;-76
2021/06/18 09:09:27;;;;;;;11.80;9.45;;;;;;;;;;5110766;28;20019;-75
2021/06/18 09:11:53;;;;;;;13.00;8.75;;;;;;;;;;5128019;27;20156;-76
2021/06/18 09:14:21;;;;;;;11.10;8.27;;;;;;;;;;5114586;27;20538;-76
2021/06/18 09:17:24;;;;;;;12.52;8.52;;;;;;;;;;5126762;27;20030;-76
2021/06/18 09:19:52;;;;;;;9.13;8.15;;;;;;;;;;5022448;28;20488;-76
2021/06/18 09:22:22;;;;;;;9.98;8.27;;;;;;;;;;5094585;28;20036;-76
2021/06/18 09:24:58;;;;;;;11.10;8.77;;;;;;;;;;5110297;27;20053;-77
2021/06/18 09:27:35;;;;;;;14.40;8.23;;;;;;;;;;5121551;27;20051;-75
2021/06/18 09:30:01;;;;;;;;;;;;;;;;;;5125161;27;20027;-75
2021/06/18 09:32:27;;;;;;;9.32;7.82;;;;;;;;;;5110933;28;19916;-76
2021/06/18 09:37:29;;;;;;;12.82;7.75;;;;;;;;;;5127241;28;20031;-75
2021/06/18 09:40:04;;;;;;;11.48;9.05;;;;;;;;;;5126180;28;20612;-75
2021/06/18 09:42:31;;;;;;;8.60;7.10;;;;;;;;;;5109990;28;20055;-75
2021/06/18 09:45:03;;;;;;;9.35;7.38;;;;;;;;;;5115951;28;20059;-75
2021/06/18 09:47:29;;;;;;;10.45;7.38;;;;;;;;;;5126572;28;20077;-74
2021/06/18 09:49:55;;;;;;;11.55;7.35;;;;;;;;;;5111307;28;20032;-74
2021/06/18 09:52:22;;;;;;;9.90;7.53;;;;;;;;;;5109341;28;20054;-75
2021/06/18 09:54:50;;;;;;;12.00;7.28;;;;;;;;;;5092337;28;20020;-75
2021/06/18 09:57:17;;;;;;;8.38;7.55;;;;;;;;;;5109331;28;20034;-74
2021/06/18 09:59:47;;;;;;;10.45;7.75;;;;;;;;;;5112968;28;20847;-76
2021/06/18 10:02:13;;;;;;;9.88;7.47;;;;;;;;;;5110253;28;20427;-75
2021/06/18 10:04:40;;;;;;;9.43;7.82;;;;;;;;;;5110271;28;20107;-75
2021/06/18 10:07:07;;;;;;;8.80;7.88;;;;;;;;;;5111067;28;20023;-73
2021/06/18 10:09:33;;;;;;;9.10;8.02;;;;;;;;;;5121830;27;20027;-74
2021/06/18 10:11:59;;;;;;;9.07;7.53;;;;;;;;;;5127389;27;20061;-73
2021/06/18 10:14:25;;;;;;;10.50;7.85;;;;;;;;;;5115473;27;20035;-73
2021/06/18 10:16:51;;;;;;;10.53;7.70;;;;;;;;;;5102290;28;20125;-73
2021/06/18 10:19:17;;;;;;;7.93;7.13;;;;;;;;;;5115935;27;20374;-74
2021/06/18 10:21:47;;;;;;;12.63;8.10;;;;;;;;;;5116089;27;20031;-74
2021/06/18 10:24:14;;;;;;;11.98;7.65;;;;;;;;;;5113314;27;20457;-73
2021/06/18 10:26:40;;;;;;;10.00;7.43;;;;;;;;;;5101162;27;20649;-75
2021/06/18 10:29:06;;;;;;;9.32;7.00;;;;;;;;;;5131435;27;20107;-72
2021/06/18 10:31:35;;;;;;;10.23;6.73;;;;;;;;;;5121016;27;20043;-73
2021/06/18 10:34:16;;;;;;;7.40;5.80;;;;;;;;;;5118925;27;20035;-73
2021/06/18 10:36:43;;;;;;;15.80;6.65;;;;;;;;;;5113564;27;20637;-73
2021/06/18 10:39:09;;;;;;;9.65;6.13;;;;;;;;;;5111733;27;20038;-73
2021/06/18 10:41:43;;;;;;;9.83;6.60;;;;;;;;;;5114695;27;20016;-72
2021/06/18 10:44:09;;;;;;;7.30;6.20;;;;;;;;;;5112681;28;20269;-73
2021/06/18 10:46:37;;;;;;;7.67;5.90;;;;;;;;;;5135745;27;20448;-73
2021/06/18 10:49:10;;;;;;;7.07;6.38;;;;;;;;;;5127104;27;20106;-73
2021/06/18 10:51:50;;;;;;;9.68;6.90;;;;;;;;;;5132056;27;20083;-73
2021/06/18 10:54:26;;;;;;;9.63;6.85;;;;;;;;;;5123862;27;20087;-73
2021/06/18 10:57:00;;;;;;;11.07;6.72;;;;;;;;;;5118355;27;20034;-73
2021/06/18 10:59:32;;;;;;;8.05;6.25;;;;;;;;;;5112820;28;20120;-75
2021/06/18 11:01:59;;;;;;;6.82;6.00;;;;;;;;;;5112907;27;20026;-73
2021/06/18 11:04:42;;;;;;;9.50;6.43;;;;;;;;;;5128847;27;20070;-73
2021/06/18 11:07:24;;;;;;;7.78;6.22;;;;;;;;;;5132832;27;20051;-74
2021/06/18 11:09:54;;;;;;;11.75;7.03;;;;;;;;;;5108302;27;20031;-74
2021/06/18 11:12:26;;;;;;;9.25;7.00;;;;;;;;;;5108474;27;20039;-73
2021/06/18 11:15:06;;;;;;;11.73;6.68;;;;;;;;;;5108123;28;20046;-73
2021/06/18 11:17:43;;;;;;;7.30;6.60;;;;;;;;;;5124701;27;20023;-72
2021/06/18 11:20:10;;;;;;;7.32;6.63;;;;;;;;;;5130581;27;20380;-73
2021/06/18 11:22:39;;;;;;;8.30;6.63;;;;;;;;;;5127945;27;20043;-72
2021/06/18 11:25:05;;;;;;;8.82;6.75;;;;;;;;;;5124416;27;20087;-73
2021/06/18 11:27:31;;;;;;;10.45;6.38;;;;;;;;;;5111184;27;20027;-73
2021/06/18 11:30:16;;;;;;;7.07;6.32;;;;;;;;;;5113642;27;20530;-75
2021/06/18 11:32:43;;;;;;;7.97;5.90;;;;;;;;;;5126841;27;20062;-74
2021/06/18 11:35:09;;;;;;;;;;;;;;;;;;5113247;27;20530;-75
2021/06/18 11:37:35;;;;;;;8.95;6.50;;;;;;;;;;5112331;27;19912;-75
2021/06/18 11:40:08;;;;;;;8.90;7.03;;;;;;;;;;5112431;27;20086;-74
2021/06/18 11:42:38;;;;;;;7.97;6.38;;;;;;;;;;5130157;27;20646;-76
2021/06/18 11:45:04;;;;;;;8.63;6.43;;;;;;;;;;5125485;27;20030;-76
2021/06/18 11:47:34;;;;;;;9.57;6.35;;;;;;;;;;5120392;27;20096;-75
2021/06/18 11:50:00;;;;;;;9.40;6.30;;;;;;;;;;5120258;27;20027;-75
2021/06/18 11:52:30;;;;;;;7.13;6.50;;;;;;;;;;5110637;27;20124;-76
2021/06/18 11:54:59;;;;;;;7.28;6.57;;;;;;;;;;5112516;27;20411;-74
2021/06/18 11:57:25;;;;;;;10.00;6.60;;;;;;;;;;5120393;27;20034;-75
2021/06/18 11:59:59;;;;;;;7.10;6.13;;;;;;;;;;5119545;27;20024;-76
2021/06/18 12:02:32;;;;;;;7.75;6.05;;;;;;;;;;5109043;27;20115;-76
2021/06/18 12:05:04;;;;;;;8.48;6.65;;;;;;;;;;5126945;27;20058;-76
2021/06/18 12:07:34;;;;;;;12.75;6.50;;;;;;;;;;5124456;27;20039;-74
2021/06/18 12:10:00;;;;;;;8.35;6.00;;;;;;;;;;5111989;27;20016;-75
2021/06/18 12:12:26;;;;;;;8.45;6.38;;;;;;;;;;5108810;27;20431;-75
2021/06/18 12:14:56;;;;;;;10.57;6.70;;;;;;;;;;5131632;27;20075;-75
2021/06/18 12:17:23;;;;;;;6.90;6.30;;;;;;;;;;5115286;27;20056;-77
2021/06/18 12:19:49;;;;;;;10.93;6.32;;;;;;;;;;5119515;27;20020;-76
2021/06/18 12:22:16;;;;;;;6.95;5.80;;;;;;;;;;5110963;27;20532;-75
2021/06/18 12:24:48;;;;;;;7.13;5.88;;;;;;;;;;5110928;27;20043;-76
2021/06/18 12:27:15;;;;;;;9.52;6.03;;;;;;;;;;5118030;27;20027;-76
2021/06/18 12:29:45;;;;;;;6.10;5.50;;;;;;;;;;5120844;27;20032;-76
2021/06/18 12:32:13;;;;;;;7.90;5.63;;;;;;;;;;5112368;27;20096;-76
2021/06/18 12:34:46;;;;;;;7.80;5.43;;;;;;;;;;5110730;27;20027;-76
2021/06/18 12:37:12;;;;;;;7.32;6.00;;;;;;;;;;5111359;27;20019;-74
2021/06/18 12:40:00;;;;;;;7.82;5.00;;;;;;;;;;5125999;27;20454;-76
2021/06/18 12:42:30;;;;;;;15.45;5.68;;;;;;;;;;5130500;27;20094;-77
2021/06/18 12:45:02;;;;;;;12.60;5.60;;;;;;;;;;5112921;27;20024;-75
2021/06/18 12:47:28;;;;;;;6.50;5.50;;;;;;;;;;5124482;27;20486;-75
2021/06/18 12:49:54;;;;;;;7.97;5.45;;;;;;;;;;5111853;27;20043;-80
2021/06/18 12:52:20;;;;;;;8.00;5.22;;;;;;;;;;5115866;27;20054;-79
2021/06/18 12:54:46;;;;;;;6.97;5.20;;;;;;;;;;5130811;27;20023;-79
2021/06/18 12:57:26;;;;;;;5.70;5.13;;;;;;;;;;5120539;27;20377;-79
2021/06/18 13:00:06;;;;;;;8.27;5.15;;;;;;;;;;5120267;27;20035;-79
2021/06/18 13:02:34;;;;;;;7.18;5.20;;;;;;;;;;5110172;28;20088;-76
2021/06/18 13:05:11;;;;;;;15.43;5.03;;;;;;;;;;5110577;28;20066;-77
2021/06/18 13:07:37;;;;;;;5.78;5.05;;;;;;;;;;5111242;27;20031;-77
2021/06/18 13:10:03;;;;;;;7.03;5.05;;;;;;;;;;5127175;27;20035;-77
2021/06/18 13:12:29;;;;;;;5.68;5.15;;;;;;;;;;5116541;27;20039;-78
2021/06/18 13:14:58;;;;;;;7.35;4.97;;;;;;;;;;5119967;27;20063;-77
2021/06/18 13:17:24;;;;;;;7.75;5.00;;;;;;;;;;5091546;28;20028;-76
2021/06/18 13:19:53;;;;;;;5.55;5.07;;;;;;;;;;5118459;27;20042;-75
2021/06/18 13:22:30;;;;;;;5.72;5.10;;;;;;;;;;5115065;27;20085;-76
2021/06/18 13:24:58;;;;;;;6.25;5.43;;;;;;;;;;5120847;27;20521;-74
2021/06/18 13:27:28;;;;;;;7.47;5.40;;;;;;;;;;5119588;27;20376;-74
2021/06/18 13:30:03;;;;;;;9.70;5.50;;;;;;;;;;5121555;27;20038;-75
2021/06/18 13:32:29;;;;;;;;;;;;;;;;;;5119026;27;20100;-75
2021/06/18 13:35:01;;;;;;;6.47;5.47;;;;;;;;;;5111789;28;19916;-73
2021/06/18 13:37:29;;;;;;;5.88;5.38;;;;;;;;;;5119266;28;20030;-73
2021/06/18 13:40:09;;;;;;;8.55;5.68;;;;;;;;;;5123909;28;20453;-74
2021/06/18 13:42:36;;;;;;;6.88;5.50;;;;;;;;;;5114478;27;20035;-73
2021/06/18 13:45:02;;;;;;;9.48;5.60;;;;;;;;;;5117225;27;20377;-73
2021/06/18 13:47:29;;;;;;;7.22;5.75;;;;;;;;;;5121990;27;20110;-74
2021/06/18 13:50:01;;;;;;;6.90;5.35;;;;;;;;;;5126597;27;20053;-75
2021/06/18 13:52:27;;;;;;;6.05;5.40;;;;;;;;;;5099386;27;20394;-74
2021/06/18 13:54:53;;;;;;;7.93;5.35;;;;;;;;;;5118129;27;20497;-74
2021/06/18 13:57:19;;;;;;;6.10;5.50;;;;;;;;;;5123428;27;20042;-73
2021/06/18 13:59:45;;;;;;;11.63;5.25;;;;;;;;;;5125245;27;20023;-73
2021/06/18 14:02:11;;;;;;;8.02;5.55;;;;;;;;;;5125308;27;20041;-74
2021/06/18 14:04:37;;;;;;;9.68;5.50;;;;;;;;;;5129351;27;20106;-74
2021/06/18 14:07:03;;;;;;;6.88;5.57;;;;;;;;;;5110313;27;20027;-74
2021/06/18 14:09:29;;;;;;;9.35;5.60;;;;;;;;;;5118073;27;20050;-75
2021/06/18 14:11:55;;;;;;;15.93;5.82;;;;;;;;;;5117525;27;20548;-80
2021/06/18 14:14:22;;;;;;;7.57;5.20;;;;;;;;;;5116315;27;20065;-79
2021/06/18 14:16:51;;;;;;;8.27;5.72;;;;;;;;;;5105626;28;20031;-84
2021/06/18 14:19:18;;;;;;;8.63;5.43;;;;;;;;;;5095662;28;20490;-82
2021/06/18 14:21:44;;;;;;;7.43;4.82;;;;;;;;;;5130322;27;20027;-82
2021/06/18 14:24:10;;;;;;;7.93;5.30;;;;;;;;;;5103058;28;20028;-84
2021/06/18 14:26:36;;;;;;;8.20;4.97;;;;;;;;;;5113597;28;20473;-77
2021/06/18 14:29:02;;;;;;;6.22;4.80;;;;;;;;;;5113775;27;20028;-78
2021/06/18 14:31:29;;;;;;;6.78;4.97;;;;;;;;;;5120039;27;20042;-78
2021/06/18 14:33:55;;;;;;;10.02;5.22;;;;;;;;;;5115369;27;20055;-78
2021/06/18 14:36:21;;;;;;;6.63;4.82;;;;;;;;;;5118748;27;20019;-79